OEDF/DMM METAR and TAF weather

Enter ICAO airport designator
Station Type Date Time Source
OEDF METAR 2021/05/14 23:00 UTC NOAA

OEDF 142300Z 00000KT CAVOK 29/04 Q1001 NOSIG


Station Type Date Time Source
OEDF Decoded METAR 2021/05/14 23:00 UTC NOAA

Dammam-King Fahd International Airport, Saudi Arabia (OEDF) 26-28N 049-47E
May 14, 2021 - 07:00 PM EDT / 2021.05.14 2300 UTC
Wind: Calm:0
Visibility: greater than 7 mile(s):0
Temperature: 84 F (29 C)
Dew Point: 39 F (4 C)
Relative Humidity: 20%
Pressure (altimeter): 29.56 in. Hg (1001 hPa)
ob: OEDF 142300Z 00000KT CAVOK 29/04 Q1001 NOSIG
cycle: 23

Station Type Date Time Source
OEDF TAF 2021/05/14 18:33 UTC NOAA

TAF TAF OEDF 141440Z 1418/1524 VRB05KT CAVOK
BECMG 1509/1511 09013KT

Example: see airport list